ISR536 LGKR-LLBG
Flight info
| Callsign | ISR536 |
|---|---|
| Flight time | N/A |
| Altitude | 39000 |
| Route | MALED UA14 ARA UL612 TRL UM601 MIL UN134 VANZA N134 BIRES Z89 PIKOG L609 ZUKKO |
| Aircraft | A320/M-SDE2FGHIJ1LORVWY/SB1 |
Departure
| Time | 2026-04-27 13:42 |
|---|---|
| Airport | Corfu Ioannis Kapodistrias International Airport (LGKR) |
Arrival
| Time | N/A |
|---|---|
| Airport | Ben Gurion International Airport (LLBG) |
| Time | Latitude | Longitude | Altitude | Speed | Heading |
|---|---|---|---|---|---|
| 2026-04-27 13:32 | 39.60629 | 19.91365 | 18 ft | 0 kts | 80° |
| 2026-04-27 13:32 | 39.60630 | 19.91371 | 18 ft | 0 kts | 80° |
| 2026-04-27 13:36 | 39.60628 | 19.91357 | 19 ft | 4 kts | 81° |
| 2026-04-27 13:37 | 39.60624 | 19.91322 | 21 ft | 4 kts | 80° |
| 2026-04-27 13:37 | 39.60617 | 19.91292 | 20 ft | 4 kts | 36° |
| 2026-04-27 13:37 | 39.60610 | 19.91288 | 19 ft | 2 kts | 348° |
| 2026-04-27 13:39 | 39.60617 | 19.91275 | 19 ft | 8 kts | 301° |
| 2026-04-27 13:39 | 39.60700 | 19.91218 | 18 ft | 17 kts | 349° |
| 2026-04-27 13:40 | 39.60825 | 19.91185 | 18 ft | 20 kts | 348° |
| 2026-04-27 13:40 | 39.60967 | 19.91146 | 19 ft | 23 kts | 348° |
| 2026-04-27 13:40 | 39.61127 | 19.91103 | 19 ft | 17 kts | 348° |
| 2026-04-27 13:40 | 39.61152 | 19.91097 | 21 ft | 1 kts | 348° |
| 2026-04-27 13:41 | 39.61180 | 19.91087 | 19 ft | 8 kts | 337° |
| 2026-04-27 13:41 | 39.61223 | 19.90985 | 21 ft | 13 kts | 259° |
| 2026-04-27 13:41 | 39.61150 | 19.90968 | 21 ft | 13 kts | 168° |
| 2026-04-27 13:41 | 39.60905 | 19.91031 | 21 ft | 80 kts | 169° |
| 2026-04-27 13:42 | 39.60076 | 19.91249 | 28 ft | 157 kts | 167° |
| 2026-04-27 13:42 | 39.58956 | 19.91563 | 794 ft | 165 kts | 164° |
| 2026-04-27 13:42 | 39.58002 | 19.92383 | 1751 ft | 169 kts | 133° |
| 2026-04-27 13:42 | 39.57208 | 19.93434 | 2474 ft | 163 kts | 139° |
| 2026-04-27 13:43 | 39.56364 | 19.94392 | 3153 ft | 160 kts | 141° |
| 2026-04-27 13:43 | 39.55482 | 19.95361 | 3546 ft | 176 kts | 141° |
| 2026-04-27 13:43 | 39.54488 | 19.96437 | 3835 ft | 196 kts | 142° |
| 2026-04-27 13:43 | 39.53386 | 19.97624 | 4233 ft | 214 kts | 142° |
| 2026-04-27 13:44 | 39.52222 | 19.98873 | 4953 ft | 225 kts | 142° |
| 2026-04-27 13:44 | 39.50940 | 20.00216 | 5449 ft | 249 kts | 143° |
| 2026-04-27 13:44 | 39.49563 | 20.01645 | 6137 ft | 264 kts | 142° |
| 2026-04-27 13:44 | 39.48063 | 20.03203 | 6741 ft | 285 kts | 142° |
| 2026-04-27 13:45 | 39.46461 | 20.04870 | 7149 ft | 308 kts | 142° |
| 2026-04-27 13:45 | 39.44725 | 20.06677 | 7489 ft | 332 kts | 142° |
| 2026-04-27 13:45 | 39.42861 | 20.08619 | 7860 ft | 357 kts | 143° |
| 2026-04-27 13:45 | 39.41551 | 20.09983 | 8070 ft | 373 kts | 144° |
| 2026-04-27 13:46 | 39.33648 | 20.18127 | 9395 ft | 459 kts | 147° |
| 2026-04-27 13:46 | 39.31929 | 20.19900 | 9585 ft | 476 kts | 147° |
| 2026-04-27 13:47 | 39.22654 | 20.29529 | 10536 ft | 539 kts | 146° |
| 2026-04-27 13:47 | 39.20717 | 20.31550 | 10956 ft | 542 kts | 145° |